Time;durP1;ratioP1;P1;durP2;ratioP2;P2;SDS_P1;SDS_P2;PMS_P1;PMS_P2;Temp;Humidity;BMP_temperature;BMP_pressure;BME280_temperature;BME280_humidity;BME280_pressure;Samples;Min_cycle;Max_cycle;Signal;HPM_P1;HPM_P2
2022/08/01 00:01:32;;;;;;;0.20;0.20;;;23.50;99.90;;;;;;5074898;28;20608;-80
2022/08/01 00:03:58;;;;;;;0.43;0.37;;;23.30;99.90;;;;;;5071170;28;20186;-80
2022/08/01 00:06:23;;;;;;;0.93;0.60;;;23.30;99.90;;;;;;5076034;28;20670;-81
2022/08/01 00:08:49;;;;;;;0.13;0.13;;;23.30;99.90;;;;;;5067741;28;20448;-81
2022/08/01 00:11:14;;;;;;;0.30;0.30;;;23.30;99.90;;;;;;5074294;28;20262;-80
2022/08/01 00:13:40;;;;;;;0.20;0.20;;;23.30;99.90;;;;;;5071081;28;20662;-80
2022/08/01 00:16:06;;;;;;;0.30;0.30;;;23.20;99.90;;;;;;5075086;28;20265;-80
2022/08/01 00:18:31;;;;;;;0.13;0.13;;;23.10;99.90;;;;;;5068735;28;20334;-81
2022/08/01 00:20:57;;;;;;;0.20;0.20;;;23.20;99.90;;;;;;5072686;28;20250;-80
2022/08/01 00:23:22;;;;;;;0.30;0.30;;;23.20;99.90;;;;;;5061442;28;20272;-80
2022/08/01 00:25:48;;;;;;;0.30;0.30;;;23.10;99.90;;;;;;5070932;28;20318;-80
2022/08/01 00:28:13;;;;;;;0.30;0.30;;;23.10;99.90;;;;;;5071985;28;20181;-80
2022/08/01 00:30:39;;;;;;;0.30;0.30;;;23.00;99.90;;;;;;5072058;28;20180;-80
2022/08/01 00:33:05;;;;;;;0.30;0.30;;;23.00;99.90;;;;;;5072285;28;20187;-80
2022/08/01 00:35:30;;;;;;;0.20;0.20;;;23.00;99.90;;;;;;5070648;28;20559;-80
2022/08/01 00:37:56;;;;;;;0.20;0.20;;;22.90;99.90;;;;;;5072790;28;20279;-80
2022/08/01 00:40:22;;;;;;;0.47;0.47;;;22.90;99.90;;;;;;5072072;28;20202;-80
2022/08/01 00:42:47;;;;;;;0.30;0.30;;;22.90;99.90;;;;;;5066927;28;20308;-80
2022/08/01 00:45:13;;;;;;;0.27;0.27;;;22.90;99.90;;;;;;5070733;28;20208;-80
2022/08/01 00:47:39;;;;;;;0.30;0.30;;;22.80;99.90;;;;;;5063479;28;20238;-80
2022/08/01 00:50:05;;;;;;;0.73;0.30;;;22.80;99.90;;;;;;5072104;28;20226;-80
2022/08/01 00:52:32;;;;;;;0.30;0.30;;;22.70;99.90;;;;;;5070832;28;20328;-80
2022/08/01 00:54:57;;;;;;;0.20;0.20;;;22.70;99.90;;;;;;5070361;28;20208;-80
2022/08/01 00:57:23;;;;;;;0.30;0.30;;;22.60;99.90;;;;;;5070820;28;20197;-80
2022/08/01 00:59:48;;;;;;;0.23;0.23;;;22.60;99.90;;;;;;5087935;28;20220;-80
2022/08/01 01:02:14;;;;;;;0.27;0.27;;;22.60;99.90;;;;;;5064468;28;20692;-79
2022/08/01 01:04:39;;;;;;;0.23;0.23;;;22.60;99.90;;;;;;5076070;28;22240;-80
2022/08/01 01:07:21;;;;;;;0.20;0.20;;;22.50;99.90;;;;;;5077120;28;20192;-80
2022/08/01 01:10:08;;;;;;;0.30;0.30;;;22.50;99.90;;;;;;5069996;28;20192;-80
2022/08/01 01:12:41;;;;;;;0.50;0.37;;;22.50;99.90;;;;;;5088952;28;20257;-80
2022/08/01 01:15:20;;;;;;;0.30;0.20;;;22.50;99.90;;;;;;5090859;28;20716;-80
2022/08/01 01:17:52;;;;;;;0.30;0.30;;;22.40;99.90;;;;;;5067318;28;20276;-81
2022/08/01 01:20:20;;;;;;;0.40;0.40;;;22.40;99.90;;;;;;5065460;28;21053;-80
2022/08/01 01:22:57;;;;;;;0.17;0.17;;;22.40;99.90;;;;;;5066912;28;20205;-80
2022/08/01 01:25:33;;;;;;;0.13;0.13;;;22.40;99.90;;;;;;5066148;28;20212;-80
2022/08/01 01:28:35;;;;;;;0.20;0.20;;;22.40;99.90;;;;;;5074029;28;20176;-80
2022/08/01 01:31:02;;;;;;;1.50;0.53;;;22.30;99.90;;;;;;5088132;28;20707;-80
2022/08/01 01:33:31;;;;;;;0.20;0.20;;;22.30;99.90;;;;;;5069257;28;20264;-80
2022/08/01 01:36:01;;;;;;;0.20;0.20;;;22.30;99.90;;;;;;5088902;28;20650;-80
2022/08/01 01:38:31;;;;;;;0.10;0.10;;;22.30;99.90;;;;;;5069845;28;20181;-80
2022/08/01 01:40:57;;;;;;;0.10;0.10;;;22.30;99.90;;;;;;5064068;28;20185;-80
2022/08/01 01:43:24;;;;;;;0.47;0.37;;;22.30;99.90;;;;;;5068101;28;20184;-79
2022/08/01 01:45:51;;;;;;;0.13;0.13;;;22.20;99.90;;;;;;5060988;28;20205;-80
2022/08/01 01:48:19;;;;;;;0.20;0.20;;;22.20;99.90;;;;;;5065096;28;20188;-79
2022/08/01 01:50:46;;;;;;;0.43;0.40;;;22.30;99.90;;;;;;5073036;28;20180;-80
2022/08/01 01:53:18;;;;;;;0.33;0.20;;;22.20;99.90;;;;;;5064514;28;20203;-80
2022/08/01 01:55:47;;;;;;;0.30;0.30;;;22.20;99.90;;;;;;5068211;28;20189;-80
2022/08/01 01:58:14;;;;;;;0.17;0.17;;;22.30;99.90;;;;;;5062004;28;20196;-80
2022/08/01 02:00:45;;;;;;;0.17;0.17;;;22.20;99.90;;;;;;5071341;28;20180;-79
2022/08/01 02:03:12;;;;;;;0.17;0.17;;;22.20;99.90;;;;;;5066290;28;20193;-80
2022/08/01 02:05:39;;;;;;;0.97;0.50;;;22.10;99.90;;;;;;5060457;28;20201;-79
2022/08/01 02:08:07;;;;;;;0.30;0.30;;;22.10;99.90;;;;;;5067270;28;20173;-80
2022/08/01 02:10:34;;;;;;;0.30;0.30;;;22.00;99.90;;;;;;5079744;28;20173;-80
2022/08/01 02:13:03;;;;;;;0.20;0.20;;;21.90;99.90;;;;;;5063810;28;20285;-80
2022/08/01 02:15:31;;;;;;;0.17;0.17;;;21.70;99.90;;;;;;5058523;28;20237;-80
2022/08/01 02:17:58;;;;;;;0.20;0.20;;;21.70;99.90;;;;;;5070824;28;20578;-80
2022/08/01 02:20:26;;;;;;;0.20;0.20;;;21.70;99.90;;;;;;5067265;28;20179;-80
2022/08/01 02:23:06;;;;;;;0.20;0.20;;;21.80;99.90;;;;;;5070040;28;20209;-80
2022/08/01 02:25:50;;;;;;;0.10;0.10;;;21.80;99.90;;;;;;5068960;28;20212;-80
2022/08/01 02:28:25;;;;;;;0.20;0.20;;;21.60;99.90;;;;;;5068616;28;20209;-80
2022/08/01 02:30:50;;;;;;;0.20;0.20;;;21.60;99.90;;;;;;5067027;28;20559;-80
2022/08/01 02:33:24;;;;;;;0.20;0.20;;;21.60;99.90;;;;;;5085405;28;20181;-80
2022/08/01 02:35:57;;;;;;;0.20;0.20;;;21.40;99.90;;;;;;5061566;28;20185;-80
2022/08/01 02:38:27;;;;;;;0.30;0.30;;;21.50;99.90;;;;;;5064980;28;20185;-80
2022/08/01 02:40:57;;;;;;;1.40;0.30;;;21.50;99.90;;;;;;5073211;28;20222;-80
2022/08/01 02:43:26;;;;;;;0.10;0.10;;;21.60;99.90;;;;;;5062195;28;20582;-80
2022/08/01 02:45:55;;;;;;;0.20;0.20;;;21.60;99.90;;;;;;5067772;28;20205;-80
2022/08/01 02:48:25;;;;;;;0.20;0.20;;;21.50;99.90;;;;;;5063949;28;20196;-80
2022/08/01 02:50:54;;;;;;;7.93;2.30;;;21.50;99.90;;;;;;5068963;28;20177;-80
2022/08/01 02:53:23;;;;;;;0.93;0.43;;;21.50;99.90;;;;;;5068329;28;20181;-80
2022/08/01 02:55:50;;;;;;;0.30;0.30;;;21.40;99.90;;;;;;5071371;28;20189;-80
2022/08/01 02:58:18;;;;;;;0.37;0.20;;;21.50;99.90;;;;;;5076760;28;20550;-80
2022/08/01 03:00:45;;;;;;;0.30;0.30;;;21.50;99.90;;;;;;5066991;28;20578;-80
2022/08/01 03:03:14;;;;;;;0.20;0.20;;;21.60;99.90;;;;;;5066282;28;20212;-80
2022/08/01 03:05:41;;;;;;;0.20;0.20;;;21.70;99.90;;;;;;5067963;28;20705;-80
2022/08/01 03:08:09;;;;;;;0.50;0.50;;;21.60;99.90;;;;;;5068128;28;20182;-80
2022/08/01 03:10:38;;;;;;;0.40;0.40;;;21.70;99.90;;;;;;5071463;28;20165;-80
2022/08/01 03:13:06;;;;;;;0.20;0.20;;;21.70;99.90;;;;;;5072239;28;20232;-80
2022/08/01 03:15:36;;;;;;;0.30;0.30;;;21.60;99.90;;;;;;5065145;28;20177;-80
2022/08/01 03:18:04;;;;;;;0.30;0.30;;;21.60;99.90;;;;;;5070159;28;20185;-79
2022/08/01 03:20:32;;;;;;;0.20;0.20;;;21.60;99.90;;;;;;5060399;28;20184;-80
2022/08/01 03:23:03;;;;;;;0.20;0.20;;;21.50;99.90;;;;;;5066249;28;20205;-80
2022/08/01 03:25:31;;;;;;;0.20;0.20;;;21.40;99.90;;;;;;5066320;28;20207;-80
2022/08/01 03:28:00;;;;;;;0.20;0.20;;;21.40;99.90;;;;;;5089588;28;20665;-80
2022/08/01 03:30:27;;;;;;;0.20;0.20;;;21.50;99.90;;;;;;5072199;28;20189;-80
2022/08/01 03:32:53;;;;;;;0.20;0.20;;;21.50;99.90;;;;;;5063511;28;20304;-80
2022/08/01 03:35:19;;;;;;;0.20;0.20;;;21.30;99.90;;;;;;5070546;28;20185;-80
2022/08/01 03:37:48;;;;;;;0.40;0.40;;;21.20;99.90;;;;;;5058401;28;20186;-80
2022/08/01 03:40:33;;;;;;;0.23;0.23;;;21.30;99.90;;;;;;5065826;28;20204;-80
2022/08/01 03:43:15;;;;;;;0.20;0.20;;;21.40;99.90;;;;;;5067266;28;20236;-80
2022/08/01 03:45:45;;;;;;;0.43;0.43;;;21.50;99.90;;;;;;5071987;28;20565;-80
2022/08/01 03:48:16;;;;;;;0.20;0.20;;;21.40;99.90;;;;;;5060925;28;20181;-80
2022/08/01 03:50:45;;;;;;;0.20;0.20;;;21.40;99.90;;;;;;5064415;28;20188;-79
2022/08/01 03:53:12;;;;;;;0.30;0.30;;;21.50;99.90;;;;;;5072980;28;20258;-79
2022/08/01 03:55:40;;;;;;;0.27;0.27;;;21.60;99.90;;;;;;5067192;28;20230;-79
2022/08/01 03:58:08;;;;;;;0.40;0.40;;;21.50;99.90;;;;;;5066044;28;20188;-79
2022/08/01 04:00:39;;;;;;;0.20;0.20;;;21.60;99.90;;;;;;5068767;28;20212;-79
2022/08/01 04:03:06;;;;;;;0.30;0.30;;;21.70;99.90;;;;;;5071597;28;20201;-80
2022/08/01 04:05:32;;;;;;;0.20;0.20;;;21.60;99.90;;;;;;5067309;28;20204;-80
2022/08/01 04:07:59;;;;;;;0.23;0.23;;;21.60;99.90;;;;;;5072190;28;20547;-80
2022/08/01 04:10:25;;;;;;;0.47;0.43;;;21.80;99.90;;;;;;5069579;28;20192;-80
2022/08/01 04:12:51;;;;;;;0.20;0.20;;;21.80;99.90;;;;;;5073664;28;20274;-80
2022/08/01 04:15:17;;;;;;;0.20;0.20;;;21.80;99.90;;;;;;5069284;28;20267;-80
2022/08/01 04:17:43;;;;;;;0.20;0.20;;;21.80;99.90;;;;;;5075709;28;20750;-79
2022/08/01 04:20:10;;;;;;;0.40;0.40;;;21.90;99.90;;;;;;5068649;28;20181;-80
2022/08/01 04:22:36;;;;;;;0.20;0.20;;;22.10;99.90;;;;;;5062441;28;20573;-80
2022/08/01 04:25:08;;;;;;;0.20;0.20;;;22.20;99.90;;;;;;5070255;28;20208;-80
2022/08/01 04:27:40;;;;;;;0.20;0.20;;;22.20;99.90;;;;;;5070260;28;20177;-80
2022/08/01 04:30:07;;;;;;;0.30;0.30;;;22.20;99.90;;;;;;5073862;28;20189;-79
2022/08/01 04:32:38;;;;;;;0.20;0.20;;;22.20;99.90;;;;;;5070329;28;20247;-80
2022/08/01 04:35:07;;;;;;;0.27;0.27;;;22.20;99.90;;;;;;5064051;28;20227;-80
2022/08/01 04:37:36;;;;;;;0.10;0.10;;;22.30;99.90;;;;;;5065950;28;20188;-80
2022/08/01 04:40:05;;;;;;;0.30;0.30;;;22.10;99.90;;;;;;5069002;28;20189;-80
2022/08/01 04:42:32;;;;;;;0.23;0.23;;;22.00;99.90;;;;;;5074156;28;20215;-80
2022/08/01 04:44:58;;;;;;;0.20;0.20;;;21.70;99.90;;;;;;5063590;28;20227;-80
2022/08/01 04:47:25;;;;;;;0.30;0.30;;;21.80;99.90;;;;;;5068194;28;20177;-81
2022/08/01 04:49:51;;;;;;;0.47;0.47;;;21.90;99.90;;;;;;5084891;28;20201;-80
2022/08/01 04:52:17;;;;;;;0.20;0.20;;;22.00;99.90;;;;;;5073968;28;20200;-81
2022/08/01 04:54:43;;;;;;;0.20;0.20;;;21.80;99.90;;;;;;5073653;28;20548;-80
2022/08/01 04:57:09;;;;;;;0.30;0.30;;;21.90;99.90;;;;;;5072414;28;20196;-80
2022/08/01 04:59:40;;;;;;;0.30;0.30;;;21.60;99.90;;;;;;5058903;28;20188;-80
2022/08/01 05:02:09;;;;;;;0.30;0.30;;;21.80;99.90;;;;;;5071444;28;20209;-80
2022/08/01 05:04:36;;;;;;;0.30;0.30;;;22.00;99.90;;;;;;5074737;28;20217;-80
2022/08/01 05:07:03;;;;;;;0.20;0.20;;;22.10;99.90;;;;;;5068430;28;20206;-80
2022/08/01 05:09:28;;;;;;;0.73;0.40;;;22.30;99.90;;;;;;5072921;28;20182;-81
2022/08/01 05:11:54;;;;;;;0.20;0.20;;;22.50;99.90;;;;;;5074392;28;20711;-81
2022/08/01 05:14:20;;;;;;;0.30;0.30;;;22.60;99.90;;;;;;5087409;28;20195;-82
2022/08/01 05:16:46;;;;;;;0.30;0.30;;;22.70;99.90;;;;;;5074537;28;20220;-80
2022/08/01 05:19:11;;;;;;;0.40;0.40;;;22.80;99.90;;;;;;5074900;28;20193;-80
2022/08/01 05:21:37;;;;;;;0.30;0.30;;;22.90;99.90;;;;;;5075487;28;20207;-80
2022/08/01 05:24:04;;;;;;;0.40;0.40;;;22.90;99.90;;;;;;5074758;28;20262;-80
2022/08/01 05:26:30;;;;;;;0.50;0.40;;;23.00;99.90;;;;;;5072255;28;20252;-80
2022/08/01 05:28:55;;;;;;;0.20;0.20;;;23.10;99.90;;;;;;5079871;28;20193;-80
2022/08/01 05:31:21;;;;;;;0.27;0.27;;;23.20;99.90;;;;;;5075269;28;20221;-80
2022/08/01 05:33:46;;;;;;;0.40;0.40;;;23.20;99.90;;;;;;5075639;28;20545;-80
2022/08/01 05:36:12;;;;;;;0.63;0.53;;;23.10;99.90;;;;;;5078591;28;20181;-79
2022/08/01 05:38:37;;;;;;;0.20;0.20;;;23.10;99.90;;;;;;5070199;28;20218;-80
2022/08/01 05:41:03;;;;;;;0.23;0.23;;;23.20;99.90;;;;;;5076040;28;20215;-79
2022/08/01 05:43:28;;;;;;;0.30;0.30;;;23.30;99.90;;;;;;5074658;28;20185;-79
2022/08/01 05:45:54;;;;;;;0.40;0.40;;;23.30;99.90;;;;;;5076794;28;20216;-80
2022/08/01 05:48:20;;;;;;;0.93;0.63;;;23.40;99.90;;;;;;5074398;28;20205;-80
2022/08/01 05:50:47;;;;;;;0.77;0.40;;;23.40;99.90;;;;;;5067417;28;20189;-80
2022/08/01 05:53:13;;;;;;;0.30;0.30;;;23.30;99.90;;;;;;5075062;28;20181;-79
2022/08/01 05:55:39;;;;;;;0.20;0.20;;;23.30;99.90;;;;;;5070069;28;20555;-80
2022/08/01 05:58:04;;;;;;;0.40;0.40;;;23.30;99.90;;;;;;5066486;28;20188;-80
2022/08/01 06:00:30;;;;;;;0.20;0.20;;;23.40;99.90;;;;;;5070415;28;20200;-80
2022/08/01 06:02:56;;;;;;;0.37;0.37;;;23.30;99.90;;;;;;5071120;28;20205;-80
2022/08/01 06:05:21;;;;;;;0.10;0.10;;;23.30;99.90;;;;;;5071547;28;20205;-80
2022/08/01 06:07:47;;;;;;;0.30;0.30;;;23.40;99.90;;;;;;5069911;28;20187;-80
2022/08/01 06:10:12;;;;;;;0.20;0.20;;;23.50;99.90;;;;;;5059826;28;20181;-80
2022/08/01 06:12:38;;;;;;;0.60;0.60;;;23.80;99.90;;;;;;5072614;28;20204;-80
2022/08/01 06:15:05;;;;;;;0.20;0.20;;;24.10;99.90;;;;;;5075706;28;20192;-80
2022/08/01 06:17:30;;;;;;;0.20;0.20;;;24.30;99.90;;;;;;5070936;28;20641;-80
2022/08/01 06:19:56;;;;;;;0.27;0.27;;;24.50;99.90;;;;;;5076064;28;20193;-80
2022/08/01 06:22:21;;;;;;;0.60;0.60;;;24.60;99.90;;;;;;5077925;28;20209;-80
2022/08/01 06:24:47;;;;;;;0.63;0.63;;;24.70;99.90;;;;;;5075447;28;20211;-80
2022/08/01 06:27:12;;;;;;;0.40;0.40;;;24.70;99.90;;;;;;5077074;28;20180;-80
2022/08/01 06:29:38;;;;;;;0.50;0.50;;;24.60;99.90;;;;;;5064650;28;20795;-80
2022/08/01 06:32:04;;;;;;;0.43;0.43;;;24.70;99.90;;;;;;5064819;28;20580;-80
2022/08/01 06:34:29;;;;;;;0.30;0.30;;;24.90;99.90;;;;;;5075406;28;20634;-80
2022/08/01 06:36:55;;;;;;;0.20;0.20;;;25.00;99.90;;;;;;5066412;28;20239;-80
2022/08/01 06:39:21;;;;;;;0.10;0.10;;;25.20;99.90;;;;;;5063835;28;20182;-80
2022/08/01 06:41:46;;;;;;;0.37;0.37;;;25.20;99.90;;;;;;5074138;28;20205;-80
2022/08/01 06:44:13;;;;;;;0.40;0.40;;;25.40;99.90;;;;;;5074378;28;20206;-80
2022/08/01 06:46:38;;;;;;;0.30;0.30;;;25.60;99.90;;;;;;5072158;28;20573;-80
2022/08/01 06:49:04;;;;;;;0.23;0.23;;;25.80;99.90;;;;;;5066899;28;20196;-80
2022/08/01 06:51:29;;;;;;;0.23;0.23;;;25.90;99.90;;;;;;5089589;28;20262;-80
2022/08/01 06:53:55;;;;;;;0.20;0.20;;;25.80;99.90;;;;;;5071784;28;20189;-80
2022/08/01 06:56:21;;;;;;;0.40;0.40;;;25.90;99.90;;;;;;5071517;28;20181;-81
2022/08/01 06:58:46;;;;;;;0.30;0.30;;;25.70;99.90;;;;;;5073197;28;20181;-81
2022/08/01 07:01:12;;;;;;;0.50;0.30;;;25.80;99.90;;;;;;5071501;28;20634;-80
2022/08/01 07:03:37;;;;;;;0.23;0.17;;;25.70;99.90;;;;;;5066819;28;20177;-80
2022/08/01 07:06:03;;;;;;;0.30;0.30;;;25.70;99.90;;;;;;5062775;28;20201;-80
2022/08/01 07:08:29;;;;;;;0.63;0.37;;;25.70;99.90;;;;;;5073058;28;20181;-80
2022/08/01 07:10:58;;;;;;;0.40;0.40;;;25.50;99.90;;;;;;5069454;28;20195;-79
2022/08/01 07:13:25;;;;;;;0.50;0.50;;;25.50;99.90;;;;;;5069891;28;20189;-80
2022/08/01 07:15:52;;;;;;;0.50;0.30;;;25.60;99.90;;;;;;5066780;28;20239;-80
2022/08/01 07:18:18;;;;;;;0.30;0.30;;;25.90;99.90;;;;;;5073193;28;20265;-80
2022/08/01 07:20:45;;;;;;;0.40;0.40;;;26.40;99.90;;;;;;5066728;28;20217;-79
2022/08/01 07:23:12;;;;;;;0.13;0.13;;;26.30;99.90;;;;;;5070351;28;20268;-80
2022/08/01 07:25:37;;;;;;;0.30;0.30;;;26.50;99.90;;;;;;5071554;28;20193;-80
2022/08/01 07:28:03;;;;;;;0.40;0.30;;;26.40;99.90;;;;;;5073893;28;20793;-80
2022/08/01 07:30:28;;;;;;;0.20;0.20;;;26.50;99.90;;;;;;5071210;28;20287;-80
2022/08/01 07:32:54;;;;;;;0.30;0.30;;;26.60;99.90;;;;;;5071348;28;20213;-80
2022/08/01 07:35:20;;;;;;;0.40;0.40;;;26.80;99.90;;;;;;5066004;28;20185;-80
2022/08/01 07:37:45;;;;;;;0.20;0.20;;;26.70;99.90;;;;;;5076307;28;20189;-80
2022/08/01 07:40:11;;;;;;;0.47;0.47;;;26.80;99.90;;;;;;5073806;28;20275;-80
2022/08/01 07:42:36;;;;;;;0.50;0.50;;;26.60;99.90;;;;;;5066293;28;20208;-80
2022/08/01 07:45:02;;;;;;;0.30;0.30;;;26.60;99.90;;;;;;5072231;28;20291;-80
2022/08/01 07:47:27;;;;;;;0.37;0.37;;;26.60;99.90;;;;;;5074704;28;20249;-80
2022/08/01 07:49:59;;;;;;;0.23;0.23;;;26.40;99.90;;;;;;5072940;28;20205;-80
2022/08/01 07:52:25;;;;;;;0.30;0.30;;;26.60;99.90;;;;;;5068088;28;20216;-80
2022/08/01 07:54:50;;;;;;;0.30;0.30;;;26.90;99.90;;;;;;5069888;28;20677;-80
2022/08/01 07:57:16;;;;;;;0.90;0.50;;;27.10;99.90;;;;;;5069871;28;20189;-80
2022/08/01 07:59:41;;;;;;;0.20;0.20;;;27.00;99.90;;;;;;5071994;28;20240;-79
2022/08/01 08:02:07;;;;;;;0.30;0.30;;;26.90;99.90;;;;;;5092583;28;20232;-80
2022/08/01 08:04:32;;;;;;;0.30;0.30;;;27.00;99.90;;;;;;5061947;28;20638;-80
2022/08/01 08:06:58;;;;;;;0.20;0.20;;;27.00;99.90;;;;;;5063704;28;20235;-79
2022/08/01 08:09:23;;;;;;;0.20;0.20;;;26.90;99.90;;;;;;5090606;28;20235;-80
2022/08/01 08:11:49;;;;;;;0.33;0.33;;;27.00;99.90;;;;;;5073448;28;20693;-80
2022/08/01 08:14:15;;;;;;;0.20;0.20;;;27.10;99.90;;;;;;5068758;28;21174;-80
2022/08/01 08:16:42;;;;;;;0.30;0.30;;;27.00;99.90;;;;;;5070357;28;20189;-80
2022/08/01 08:19:07;;;;;;;0.30;0.23;;;26.90;99.90;;;;;;5073632;28;20197;-81
2022/08/01 08:21:33;;;;;;;0.20;0.20;;;27.00;99.90;;;;;;5073737;28;20701;-79
2022/08/01 08:26:43;;;;;;;0.70;0.70;;;27.20;99.90;;;;;;5071162;28;20242;-79
2022/08/01 08:29:08;;;;;;;0.40;0.40;;;27.30;99.90;;;;;;5064282;28;20188;-79
2022/08/01 08:31:34;;;;;;;0.30;0.30;;;26.70;99.90;;;;;;5072964;28;20223;-79
2022/08/01 08:33:59;;;;;;;0.50;0.50;;;25.90;99.90;;;;;;5069555;28;20200;-79
2022/08/01 08:36:25;;;;;;;0.93;0.93;;;25.80;99.90;;;;;;5069084;28;20740;-79
2022/08/01 08:38:50;;;;;;;0.33;0.33;;;25.50;99.90;;;;;;5069557;28;20188;-79
2022/08/01 08:41:16;;;;;;;0.30;0.30;;;26.00;99.90;;;;;;5068667;28;20755;-79
2022/08/01 08:43:42;;;;;;;1.20;0.67;;;26.10;99.90;;;;;;5059488;28;20194;-79
2022/08/01 08:46:09;;;;;;;0.77;0.67;;;26.00;99.90;;;;;;5073958;28;20205;-79
2022/08/01 08:48:36;;;;;;;0.53;0.47;;;26.00;99.90;;;;;;5069393;28;20196;-79
2022/08/01 08:51:02;;;;;;;0.80;0.70;;;25.80;99.90;;;;;;5073436;28;20259;-79
2022/08/01 08:53:31;;;;;;;0.43;0.43;;;26.00;99.90;;;;;;5066411;28;20197;-80
2022/08/01 08:55:58;;;;;;;0.40;0.40;;;26.20;99.90;;;;;;5067218;28;20211;-80
2022/08/01 08:58:26;;;;;;;0.70;0.67;;;26.50;99.90;;;;;;5070315;28;20654;-79
2022/08/01 09:00:53;;;;;;;0.47;0.37;;;26.40;99.90;;;;;;5063705;28;20200;-79
2022/08/01 09:03:19;;;;;;;0.40;0.40;;;26.30;99.90;;;;;;5063648;28;20235;-79
2022/08/01 09:05:44;;;;;;;1.07;0.50;;;26.20;99.90;;;;;;5067128;28;20201;-80
2022/08/01 09:08:10;;;;;;;1.13;0.50;;;26.30;99.90;;;;;;5072475;28;20200;-80
2022/08/01 09:10:35;;;;;;;0.63;0.40;;;26.60;99.90;;;;;;5068218;28;20193;-80
2022/08/01 09:13:12;;;;;;;0.63;0.50;;;26.90;99.90;;;;;;5065433;28;20195;-79
2022/08/01 09:15:43;;;;;;;0.50;0.50;;;27.20;99.90;;;;;;5090898;28;20181;-80
2022/08/01 09:18:30;;;;;;;0.60;0.50;;;27.40;99.90;;;;;;5064185;28;20542;-80
2022/08/01 09:21:17;;;;;;;0.40;0.40;;;27.60;99.90;;;;;;5066711;28;20228;-80
2022/08/01 09:23:54;;;;;;;0.73;0.73;;;27.70;99.90;;;;;;5061920;28;20666;-80
2022/08/01 09:26:35;;;;;;;0.57;0.50;;;27.40;99.90;;;;;;5069000;28;20708;-80
2022/08/01 09:29:18;;;;;;;0.57;0.53;;;27.50;99.90;;;;;;5084371;28;20209;-80
2022/08/01 09:31:46;;;;;;;0.30;0.30;;;27.40;99.90;;;;;;5070911;28;20197;-80
2022/08/01 09:34:12;;;;;;;0.97;0.37;;;27.60;99.90;;;;;;5072094;28;20549;-80
2022/08/01 09:36:51;;;;;;;0.93;0.70;;;27.60;99.90;;;;;;5064839;28;20185;-80
2022/08/01 09:39:17;;;;;;;0.43;0.43;;;27.80;99.90;;;;;;5070936;28;20271;-80
2022/08/01 09:41:43;;;;;;;0.50;0.50;;;28.40;99.90;;;;;;5069718;28;20216;-80
2022/08/01 09:44:08;;;;;;;0.40;0.35;;;28.80;99.90;;;;;;5069422;28;20177;-80
2022/08/01 09:46:34;;;;;;;0.40;0.40;;;29.00;99.90;;;;;;5068924;28;20595;-80
2022/08/01 09:49:03;;;;;;;0.47;0.47;;;29.10;99.90;;;;;;5068897;28;20558;-80
2022/08/01 09:51:33;;;;;;;0.32;0.32;;;29.20;99.90;;;;;;5069189;28;20197;-80
2022/08/01 09:53:59;;;;;;;0.28;0.28;;;29.20;99.90;;;;;;5070339;28;20239;-80
2022/08/01 09:56:25;;;;;;;0.30;0.30;;;29.20;99.90;;;;;;5071265;28;20177;-79
2022/08/01 09:58:58;;;;;;;0.52;0.52;;;29.30;99.90;;;;;;5086071;28;20183;-80
2022/08/01 10:01:24;;;;;;;0.60;0.60;;;29.10;99.90;;;;;;5069659;28;20228;-80
2022/08/01 10:04:06;;;;;;;0.50;0.50;;;29.10;99.90;;;;;;5067737;28;20581;-79
2022/08/01 10:06:31;;;;;;;0.55;0.52;;;28.30;99.90;;;;;;5073029;28;20208;-80
2022/08/01 10:08:57;;;;;;;0.75;0.75;;;28.30;99.90;;;;;;5087028;28;20188;-80
2022/08/01 10:11:23;;;;;;;0.47;0.47;;;28.30;99.90;;;;;;5070522;28;20221;-80
2022/08/01 10:13:49;;;;;;;0.32;0.32;;;28.10;99.90;;;;;;5075551;28;20700;-80
2022/08/01 10:16:15;;;;;;;0.52;0.52;;;28.10;99.90;;;;;;5072549;28;20189;-79
2022/08/01 10:18:42;;;;;;;0.60;0.60;;;27.90;99.90;;;;;;5071752;28;20271;-80
2022/08/01 10:21:08;;;;;;;1.10;0.65;;;27.90;99.90;;;;;;5070061;28;20736;-80
2022/08/01 10:23:36;;;;;;;0.43;0.43;;;28.10;99.90;;;;;;5070648;28;20699;-80
2022/08/01 10:26:04;;;;;;;0.40;0.40;;;28.70;99.90;;;;;;5073595;28;20677;-80
2022/08/01 10:28:31;;;;;;;0.30;0.30;;;29.30;99.90;;;;;;5087977;28;20557;-80
2022/08/01 10:31:01;;;;;;;1.50;0.43;;;29.30;99.90;;;;;;5093802;28;20251;-80
2022/08/01 10:33:29;;;;;;;0.52;0.52;;;28.70;99.90;;;;;;5074754;28;20187;-80
2022/08/01 10:35:55;;;;;;;0.30;0.30;;;28.80;99.90;;;;;;5074633;28;20662;-80
2022/08/01 10:38:21;;;;;;;0.32;0.32;;;29.20;99.90;;;;;;5067596;28;20180;-80
2022/08/01 10:40:46;;;;;;;0.32;0.32;;;29.30;99.90;;;;;;5077973;28;20185;-80
2022/08/01 10:43:14;;;;;;;0.47;0.47;;;29.40;99.90;;;;;;5068225;28;20176;-80
2022/08/01 10:45:41;;;;;;;0.30;0.30;;;28.90;99.90;;;;;;5068588;28;20200;-80
2022/08/01 10:48:24;;;;;;;0.52;0.52;;;29.00;99.90;;;;;;5066838;28;20187;-79
2022/08/01 10:50:53;;;;;;;0.50;0.50;;;29.50;99.90;;;;;;5085406;28;20191;-79
2022/08/01 10:53:23;;;;;;;0.50;0.50;;;30.40;99.90;;;;;;5066813;28;20548;-79
2022/08/01 10:56:03;;;;;;;0.38;0.38;;;29.40;99.90;;;;;;5069036;28;20185;-79
2022/08/01 10:58:37;;;;;;;0.65;0.63;;;29.20;99.90;;;;;;5072064;28;20184;-79
2022/08/01 11:01:25;;;;;;;0.28;0.28;;;29.30;99.90;;;;;;5073951;28;20181;-79
2022/08/01 11:04:07;;;;;;;0.38;0.38;;;29.50;99.90;;;;;;5066029;28;20181;-79
2022/08/01 11:06:33;;;;;;;2.28;0.65;;;29.50;99.90;;;;;;5065942;28;20201;-79
2022/08/01 11:09:01;;;;;;;1.33;0.50;;;29.50;99.90;;;;;;5066663;28;20582;-79
2022/08/01 11:11:27;;;;;;;1.42;0.60;;;29.90;99.90;;;;;;5069046;28;20205;-79
2022/08/01 11:14:00;;;;;;;0.40;0.40;;;30.00;99.90;;;;;;5067735;28;20181;-79
2022/08/01 11:16:33;;;;;;;0.35;0.35;;;30.10;99.90;;;;;;5089480;28;20211;-79
2022/08/01 11:18:59;;;;;;;0.70;0.45;;;30.10;99.90;;;;;;5072460;28;20188;-79
2022/08/01 11:22:03;;;;;;;0.40;0.40;;;30.00;99.90;;;;;;5065951;28;20208;-79
2022/08/01 11:24:56;;;;;;;0.57;0.57;;;30.00;99.90;;;;;;5069599;28;20573;-79
2022/08/01 11:27:28;;;;;;;0.30;0.30;;;30.10;99.90;;;;;;5067807;28;20177;-79
2022/08/01 11:30:09;;;;;;;0.47;0.47;;;29.60;99.90;;;;;;5066117;28;20186;-79
2022/08/01 11:32:57;;;;;;;0.40;0.40;;;29.10;99.90;;;;;;5083788;28;20225;-79
2022/08/01 11:35:26;;;;;;;0.50;0.50;;;29.00;99.90;;;;;;5067939;28;20216;-79
2022/08/01 11:37:55;;;;;;;0.52;0.52;;;28.80;99.90;;;;;;5067498;28;20189;-79
2022/08/01 11:40:26;;;;;;;0.30;0.30;;;28.90;99.90;;;;;;5071893;28;20311;-79
2022/08/01 11:43:13;;;;;;;0.75;0.75;;;29.20;99.90;;;;;;5068973;28;20220;-79
2022/08/01 11:45:54;;;;;;;0.75;0.68;;;29.00;99.90;;;;;;5071040;28;20549;-78
2022/08/01 11:48:25;;;;;;;0.30;0.20;;;29.30;99.90;;;;;;5065773;28;20266;-79
2022/08/01 11:50:53;;;;;;;0.57;0.40;;;29.60;99.90;;;;;;5067815;28;20185;-79
2022/08/01 11:53:19;;;;;;;0.45;0.45;;;29.60;99.90;;;;;;5083645;28;20177;-79
2022/08/01 11:55:48;;;;;;;2.22;0.82;;;29.60;99.90;;;;;;5070195;28;20212;-79
2022/08/01 11:58:14;;;;;;;0.50;0.50;;;29.60;99.90;;;;;;5087725;28;20196;-79
2022/08/01 12:00:40;;;;;;;0.40;0.40;;;29.40;99.90;;;;;;5070378;28;20292;-79
2022/08/01 12:03:11;;;;;;;0.40;0.40;;;29.40;99.90;;;;;;5071361;28;20233;-78
2022/08/01 12:05:37;;;;;;;0.50;0.38;;;28.60;99.90;;;;;;5071894;28;20213;-78
2022/08/01 12:08:04;;;;;;;0.40;0.40;;;28.10;99.90;;;;;;5068008;28;20182;-79
2022/08/01 12:10:36;;;;;;;0.50;0.50;;;28.60;99.90;;;;;;5062069;28;20268;-79
2022/08/01 12:13:04;;;;;;;0.30;0.30;;;29.10;99.90;;;;;;5077020;28;20212;-79
2022/08/01 12:15:35;;;;;;;0.47;0.47;;;29.20;99.90;;;;;;5085608;28;20216;-79
2022/08/01 12:18:04;;;;;;;0.60;0.60;;;29.50;99.90;;;;;;5067560;28;20192;-78
2022/08/01 12:20:35;;;;;;;2.58;0.60;;;29.10;99.90;;;;;;5073223;28;20205;-80
2022/08/01 12:23:05;;;;;;;0.28;0.28;;;29.30;99.90;;;;;;5071901;28;20223;-79
2022/08/01 12:25:31;;;;;;;0.45;0.45;;;29.30;99.90;;;;;;5070914;28;20284;-79
2022/08/01 12:28:04;;;;;;;0.50;0.50;;;29.50;99.90;;;;;;5068665;28;20212;-80
2022/08/01 12:30:30;;;;;;;0.65;0.52;;;29.50;99.90;;;;;;5086722;28;20170;-79
2022/08/01 12:32:57;;;;;;;0.47;0.47;;;29.50;99.90;;;;;;5076139;28;20265;-80
2022/08/01 12:35:28;;;;;;;0.47;0.40;;;29.60;99.90;;;;;;5073687;28;20188;-80
2022/08/01 12:37:56;;;;;;;0.30;0.30;;;29.80;99.90;;;;;;5070951;28;20189;-79
2022/08/01 12:40:25;;;;;;;0.55;0.55;;;30.00;99.90;;;;;;5070373;28;20225;-79
2022/08/01 12:42:57;;;;;;;0.35;0.35;;;30.20;99.90;;;;;;5072684;28;20216;-79
2022/08/01 12:45:28;;;;;;;0.70;0.50;;;30.20;99.90;;;;;;5070604;28;20204;-79
2022/08/01 12:47:54;;;;;;;0.40;0.40;;;30.30;99.90;;;;;;5073721;28;20646;-80
2022/08/01 12:50:22;;;;;;;1.27;0.47;;;30.60;99.90;;;;;;5072506;28;20189;-81
2022/08/01 12:52:49;;;;;;;0.32;0.32;;;30.70;99.90;;;;;;5074960;28;20209;-81
2022/08/01 12:55:18;;;;;;;0.40;0.30;;;30.70;99.90;;;;;;5089465;28;20181;-80
2022/08/01 12:57:49;;;;;;;0.20;0.20;;;30.60;99.90;;;;;;5071257;28;20181;-80